Time,TemperatureF,DewpointF,PressureIn,WindDirection,WindDirectionDegrees,WindSpeedMPH,WindSpeedGustMPH,Humidity,HourlyPrecipIn,Conditions,Clouds,dailyrainin,SoftwareType,DateUTC
2013-02-23 00:10:00,46.5,36.0,30.28,East,95,0.0,1.0,68,0.00,,,0.00,weatherlink.com 1.10,2013-02-23 08:10:00,
2013-02-23 00:25:00,46.0,36.0,30.27,West,277,0.0,1.0,68,0.00,,,0.00,weatherlink.com 1.10,2013-02-23 08:25:00,
2013-02-23 00:41:00,45.9,36.0,30.25,NNE,13,0.0,5.0,69,0.00,,,0.00,weatherlink.com 1.10,2013-02-23 08:41:00,
2013-02-23 00:56:00,45.5,36.0,30.24,ESE,105,0.0,4.0,70,0.00,,,0.00,weatherlink.com 1.10,2013-02-23 08:56:00,
2013-02-23 01:11:00,45.3,36.0,30.23,NNE,22,0.0,3.0,71,0.00,,,0.00,weatherlink.com 1.10,2013-02-23 09:11:00,
2013-02-23 01:27:00,45.5,36.0,30.23,WSW,243,1.0,6.0,70,0.00,,,0.00,weatherlink.com 1.10,2013-02-23 09:27:00,
2013-02-23 01:41:00,45.4,36.0,30.22,NNE,33,2.0,5.0,70,0.00,,,0.00,weatherlink.com 1.10,2013-02-23 09:41:00,
2013-02-23 01:56:00,45.7,36.0,30.22,ENE,66,2.0,8.0,70,0.00,,,0.00,weatherlink.com 1.10,2013-02-23 09:56:00,
2013-02-23 02:11:00,45.9,37.0,30.20,WSW,250,1.0,8.0,71,0.00,,,0.00,weatherlink.com 1.10,2013-02-23 10:11:00,
2013-02-23 02:26:00,45.7,37.0,30.21,West,271,5.0,11.0,72,0.00,,,0.00,weatherlink.com 1.10,2013-02-23 10:26:00,
2013-02-23 02:41:00,45.5,38.0,30.21,WSW,246,1.0,9.0,74,0.00,,,0.00,weatherlink.com 1.10,2013-02-23 10:41:00,
2013-02-23 02:56:00,45.2,38.0,30.22,WSW,250,6.0,13.0,75,0.00,,,0.00,weatherlink.com 1.10,2013-02-23 10:56:00,
2013-02-23 03:11:00,44.8,38.0,30.21,West,278,3.0,7.0,76,0.00,,,0.00,weatherlink.com 1.10,2013-02-23 11:11:00,
2013-02-23 03:26:00,44.6,38.0,30.20,West,277,1.0,12.0,77,0.00,,,0.00,weatherlink.com 1.10,2013-02-23 11:26:00,
2013-02-23 03:41:00,44.3,38.0,30.20,West,270,1.0,12.0,78,0.00,,,0.00,weatherlink.com 1.10,2013-02-23 11:41:00,
2013-02-23 03:56:00,43.7,38.0,30.20,West,280,2.0,11.0,81,0.00,,,0.00,weatherlink.com 1.10,2013-02-23 11:56:00,
2013-02-23 04:11:00,43.3,39.0,30.20,SW,217,3.0,9.0,83,0.00,,,0.00,weatherlink.com 1.10,2013-02-23 12:11:00,
2013-02-23 04:26:00,43.1,39.0,30.21,West,267,2.0,9.0,84,0.00,,,0.00,weatherlink.com 1.10,2013-02-23 12:26:00,
2013-02-23 04:41:00,42.9,38.0,30.22,WNW,301,2.0,5.0,84,0.00,,,0.00,weatherlink.com 1.10,2013-02-23 12:41:00,
2013-02-23 04:56:00,42.7,39.0,30.21,West,270,2.0,3.0,85,0.00,,,0.00,weatherlink.com 1.10,2013-02-23 12:56:00,
2013-02-23 05:11:00,42.4,38.0,30.21,NW,316,1.0,5.0,85,0.00,,,0.00,weatherlink.com 1.10,2013-02-23 13:11:00,
2013-02-23 05:26:00,41.9,38.0,30.20,NW,317,1.0,5.0,87,0.00,,,0.00,weatherlink.com 1.10,2013-02-23 13:26:00,
2013-02-23 05:41:00,41.5,39.0,30.21,West,262,4.0,5.0,89,0.00,,,0.00,weatherlink.com 1.10,2013-02-23 13:41:00,
2013-02-23 05:56:00,41.3,39.0,30.21,WSW,257,0.0,2.0,90,0.00,,,0.00,weatherlink.com 1.10,2013-02-23 13:56:00,
2013-02-23 06:11:00,41.2,39.0,30.23,SE,129,0.0,2.0,90,0.00,,,0.00,weatherlink.com 1.10,2013-02-23 14:11:00,
2013-02-23 06:26:00,41.2,39.0,30.23,West,274,0.0,2.0,91,0.00,,,0.00,weatherlink.com 1.10,2013-02-23 14:26:00,
2013-02-23 06:41:00,41.1,39.0,30.23,WNW,294,0.0,2.0,91,0.00,,,0.00,weatherlink.com 1.10,2013-02-23 14:41:00,
2013-02-23 06:56:00,41.0,39.0,30.24,East,94,0.0,3.0,92,0.00,,,0.00,weatherlink.com 1.10,2013-02-23 14:56:00,
2013-02-23 07:11:00,41.0,39.0,30.23,WSW,243,0.0,3.0,93,0.00,,,0.00,weatherlink.com 1.10,2013-02-23 15:11:00,
2013-02-23 07:26:00,41.1,39.0,30.24,WSW,257,0.0,2.0,93,0.00,,,0.00,weatherlink.com 1.10,2013-02-23 15:26:00,
2013-02-23 07:41:00,41.1,40.0,30.26,West,264,0.0,3.0,94,0.00,,,0.00,weatherlink.com 1.10,2013-02-23 15:41:00,
2013-02-23 07:56:00,41.2,40.0,30.26,West,259,0.0,0.0,94,0.00,,,0.00,weatherlink.com 1.10,2013-02-23 15:56:00,
2013-02-23 08:11:00,41.3,40.0,30.26,West,273,2.0,3.0,94,0.00,,,0.00,weatherlink.com 1.10,2013-02-23 16:11:00,
2013-02-23 08:26:00,41.8,40.0,30.27,WSW,252,0.0,3.0,93,0.00,,,0.00,weatherlink.com 1.10,2013-02-23 16:26:00,
2013-02-23 08:41:00,41.6,40.0,30.27,WSW,242,1.0,3.0,93,0.00,,,0.00,weatherlink.com 1.10,2013-02-23 16:41:00,
2013-02-23 08:57:00,41.6,40.0,30.28,WSW,247,0.0,2.0,93,0.00,,,0.00,weatherlink.com 1.10,2013-02-23 16:57:00,
2013-02-23 09:12:00,42.3,40.0,30.28,WSW,255,0.0,0.0,92,0.00,,,0.00,weatherlink.com 1.10,2013-02-23 17:12:00,
2013-02-23 09:27:00,43.7,41.0,30.28,WSW,248,0.0,2.0,89,0.00,,,0.00,weatherlink.com 1.10,2013-02-23 17:27:00,
2013-02-23 09:42:00,44.7,41.0,30.28,ESE,117,0.0,2.0,87,0.00,,,0.00,weatherlink.com 1.10,2013-02-23 17:42:00,
2013-02-23 09:57:00,44.7,41.0,30.27,NNE,19,0.0,2.0,85,0.00,,,0.00,weatherlink.com 1.10,2013-02-23 17:57:00,
2013-02-23 10:12:00,46.1,41.0,30.27,WSW,257,0.0,4.0,81,0.00,,,0.00,weatherlink.com 1.10,2013-02-23 18:12:00,
2013-02-23 10:27:00,46.1,39.0,30.27,West,281,1.0,3.0,77,0.00,,,0.00,weatherlink.com 1.10,2013-02-23 18:27:00,
2013-02-23 10:42:00,45.7,39.0,30.27,West,266,1.0,4.0,77,0.00,,,0.00,weatherlink.com 1.10,2013-02-23 18:42:00,
2013-02-23 10:57:00,46.7,38.0,30.27,West,274,1.0,2.0,72,0.00,,,0.00,weatherlink.com 1.10,2013-02-23 18:57:00,
2013-02-23 11:12:00,47.7,39.0,30.27,SE,134,0.0,3.0,73,0.00,,,0.00,weatherlink.com 1.10,2013-02-23 19:12:00,
2013-02-23 11:27:00,48.8,39.0,30.26,West,262,2.0,4.0,68,0.00,,,0.00,weatherlink.com 1.10,2013-02-23 19:27:00,
2013-02-23 11:42:00,50.4,40.0,30.26,WSW,244,5.0,7.0,68,0.00,,,0.00,weatherlink.com 1.10,2013-02-23 19:42:00,
2013-02-23 11:57:00,50.1,37.0,30.25,WSW,249,1.0,6.0,60,0.00,,,0.00,weatherlink.com 1.10,2013-02-23 19:57:00,
2013-02-23 12:12:00,50.5,36.0,30.25,WSW,239,2.0,6.0,58,0.00,,,0.00,weatherlink.com 1.10,2013-02-23 20:12:00,
2013-02-23 12:27:00,50.1,33.0,30.24,SW,233,5.0,6.0,53,0.00,,,0.00,weatherlink.com 1.10,2013-02-23 20:27:00,
2013-02-23 12:42:00,51.5,32.0,30.23,WSW,252,3.0,4.0,47,0.00,,,0.00,weatherlink.com 1.10,2013-02-23 20:42:00,
2013-02-23 12:57:00,51.5,31.0,30.23,West,262,2.0,6.0,46,0.00,,,0.00,weatherlink.com 1.10,2013-02-23 20:57:00,
2013-02-23 13:12:00,50.2,30.0,30.23,West,270,3.0,7.0,47,0.00,,,0.00,weatherlink.com 1.10,2013-02-23 21:12:00,
2013-02-23 13:27:00,51.1,30.0,30.22,West,268,3.0,6.0,45,0.00,,,0.00,weatherlink.com 1.10,2013-02-23 21:27:00,
2013-02-23 13:42:00,52.5,32.0,30.22,West,269,1.0,8.0,45,0.00,,,0.00,weatherlink.com 1.10,2013-02-23 21:42:00,
2013-02-23 13:57:00,52.7,29.0,30.22,West,281,3.0,7.0,41,0.00,,,0.00,weatherlink.com 1.10,2013-02-23 21:57:00,
2013-02-23 14:12:00,52.1,32.0,30.21,ENE,60,0.0,6.0,47,0.00,,,0.00,weatherlink.com 1.10,2013-02-23 22:12:00,
2013-02-23 14:27:00,53.4,33.0,30.21,WNW,285,0.0,4.0,46,0.00,,,0.00,weatherlink.com 1.10,2013-02-23 22:27:00,
2013-02-23 14:42:00,53.4,32.0,30.21,East,79,0.0,5.0,45,0.00,,,0.00,weatherlink.com 1.10,2013-02-23 22:42:00,
2013-02-23 14:57:00,51.8,32.0,30.21,NNE,25,3.0,6.0,47,0.00,,,0.00,weatherlink.com 1.10,2013-02-23 22:57:00,
2013-02-23 15:12:00,53.0,31.0,30.20,West,279,2.0,4.0,43,0.00,,,0.00,weatherlink.com 1.10,2013-02-23 23:12:00,
2013-02-23 15:27:00,54.6,31.0,30.20,WNW,285,4.0,5.0,41,0.00,,,0.00,weatherlink.com 1.10,2013-02-23 23:27:00,
2013-02-23 15:42:00,52.2,28.0,30.20,NNE,32,1.0,5.0,39,0.00,,,0.00,weatherlink.com 1.10,2013-02-23 23:42:00,
2013-02-23 15:57:00,53.0,29.0,30.20,ENE,68,0.0,2.0,40,0.00,,,0.00,weatherlink.com 1.10,2013-02-23 23:57:00,
2013-02-23 16:12:00,53.0,27.0,30.21,West,263,1.0,5.0,37,0.00,,,0.00,weatherlink.com 1.10,2013-02-24 00:12:00,
2013-02-23 16:27:00,52.6,26.0,30.20,South,181,0.0,8.0,36,0.00,,,0.00,weatherlink.com 1.10,2013-02-24 00:27:00,
2013-02-23 16:42:00,52.1,26.0,30.20,NNE,31,1.0,9.0,37,0.00,,,0.00,weatherlink.com 1.10,2013-02-24 00:42:00,
2013-02-23 16:57:00,51.8,26.0,30.21,ENE,77,0.0,5.0,37,0.00,,,0.00,weatherlink.com 1.10,2013-02-24 00:57:00,
2013-02-23 17:12:00,50.8,25.0,30.21,NE,44,1.0,9.0,37,0.00,,,0.00,weatherlink.com 1.10,2013-02-24 01:12:00,
2013-02-23 17:27:00,49.4,25.0,30.21,West,262,1.0,5.0,38,0.00,,,0.00,weatherlink.com 1.10,2013-02-24 01:27:00,
2013-02-23 17:42:00,47.8,24.0,30.22,South,176,0.0,4.0,40,0.00,,,0.00,weatherlink.com 1.10,2013-02-24 01:42:00,
2013-02-23 17:57:00,47.0,24.0,30.23,West,278,0.0,6.0,41,0.00,,,0.00,weatherlink.com 1.10,2013-02-24 01:57:00,
2013-02-23 18:12:00,46.1,25.0,30.24,East,94,0.0,3.0,43,0.00,,,0.00,weatherlink.com 1.10,2013-02-24 02:12:00,
2013-02-23 18:27:00,45.6,25.0,30.24,West,276,0.0,3.0,44,0.00,,,0.00,weatherlink.com 1.10,2013-02-24 02:27:00,
2013-02-23 18:42:00,44.7,24.0,30.24,SW,226,0.0,1.0,45,0.00,,,0.00,weatherlink.com 1.10,2013-02-24 02:42:00,
2013-02-23 18:57:00,43.2,23.0,30.25,ENE,64,2.0,3.0,45,0.00,,,0.00,weatherlink.com 1.10,2013-02-24 02:57:00,
2013-02-23 19:12:00,43.2,21.0,30.25,NE,43,0.0,3.0,42,0.00,,,0.00,weatherlink.com 1.10,2013-02-24 03:12:00,
2013-02-23 19:27:00,44.3,20.0,30.25,ENE,64,3.0,6.0,38,0.00,,,0.00,weatherlink.com 1.10,2013-02-24 03:27:00,
2013-02-23 19:43:00,44.2,20.0,30.25,ENE,73,1.0,7.0,39,0.00,,,0.00,weatherlink.com 1.10,2013-02-24 03:43:00,
2013-02-23 19:58:00,43.2,22.0,30.26,NE,41,1.0,7.0,43,0.00,,,0.00,weatherlink.com 1.10,2013-02-24 03:58:00,
2013-02-23 20:13:00,42.9,20.0,30.26,ENE,63,1.0,3.0,40,0.00,,,0.00,weatherlink.com 1.10,2013-02-24 04:13:00,
2013-02-23 20:28:00,42.3,21.0,30.26,East,79,1.0,4.0,42,0.00,,,0.00,weatherlink.com 1.10,2013-02-24 04:28:00,
2013-02-23 20:43:00,41.6,20.0,30.26,SE,145,0.0,3.0,42,0.00,,,0.00,weatherlink.com 1.10,2013-02-24 04:43:00,
2013-02-23 20:58:00,41.2,20.0,30.26,NE,56,0.0,2.0,43,0.00,,,0.00,weatherlink.com 1.10,2013-02-24 04:58:00,
2013-02-23 21:13:00,40.6,19.0,30.27,NE,55,0.0,2.0,42,0.00,,,0.00,weatherlink.com 1.10,2013-02-24 05:13:00,
2013-02-23 21:28:00,40.6,20.0,30.26,NE,51,1.0,3.0,43,0.00,,,0.00,weatherlink.com 1.10,2013-02-24 05:28:00,
2013-02-23 21:43:00,40.7,20.0,30.26,East,91,0.0,3.0,44,0.00,,,0.00,weatherlink.com 1.10,2013-02-24 05:43:00,
2013-02-23 21:58:00,40.3,19.0,30.27,East,96,0.0,2.0,43,0.00,,,0.00,weatherlink.com 1.10,2013-02-24 05:58:00,
2013-02-23 22:13:00,39.2,18.0,30.27,WNW,290,0.0,1.0,43,0.00,,,0.00,weatherlink.com 1.10,2013-02-24 06:13:00,
2013-02-23 22:29:00,39.5,19.0,30.27,West,273,0.0,2.0,43,0.00,,,0.00,weatherlink.com 1.10,2013-02-24 06:29:00,
2013-02-23 22:43:00,40.0,18.0,30.27,West,267,0.0,2.0,42,0.00,,,0.00,weatherlink.com 1.10,2013-02-24 06:43:00,
2013-02-23 22:58:00,39.7,18.0,30.26,NW,312,0.0,1.0,42,0.00,,,0.00,weatherlink.com 1.10,2013-02-24 06:58:00,
2013-02-23 23:13:00,39.3,19.0,30.26,NNW,334,0.0,1.0,44,0.00,,,0.00,weatherlink.com 1.10,2013-02-24 07:13:00,
2013-02-23 23:28:00,38.6,19.0,30.26,West,266,0.0,1.0,45,0.00,,,0.00,weatherlink.com 1.10,2013-02-24 07:28:00,
2013-02-23 23:43:00,38.3,20.0,30.26,East,97,3.0,4.0,47,0.00,,,0.00,weatherlink.com 1.10,2013-02-24 07:43:00,
2013-02-23 23:58:00,38.0,19.0,30.26,West,280,1.0,2.0,47,0.00,,,0.00,weatherlink.com 1.10,2013-02-24 07:58:00,